Time;durP1;ratioP1;P1;durP2;ratioP2;P2;SDS_P1;SDS_P2;PMS_P1;PMS_P2;Temp;Humidity;BMP_temperature;BMP_pressure;BME280_temperature;BME280_humidity;BME280_pressure;Samples;Min_cycle;Max_cycle;Signal;HPM_P1;HPM_P2
2022/12/03 00:00:57;;;;;;;78.17;32.30;;;1.40;99.90;;;;;;5116521;28;20032;-81
2022/12/03 00:03:23;;;;;;;82.07;32.27;;;1.40;99.90;;;;;;5116275;28;20444;-81
2022/12/03 00:05:48;;;;;;;79.47;32.20;;;1.40;99.90;;;;;;5116076;28;20031;-81
2022/12/03 00:08:14;;;;;;;79.80;30.57;;;1.30;99.90;;;;;;5116158;28;20020;-81
2022/12/03 00:10:40;;;;;;;81.30;33.10;;;1.30;99.90;;;;;;5096516;28;20028;-81
2022/12/03 00:13:05;;;;;;;79.00;31.10;;;1.40;99.90;;;;;;5095812;28;20083;-81
2022/12/03 00:15:31;;;;;;;85.37;33.40;;;1.40;99.90;;;;;;5095429;28;20024;-81
2022/12/03 00:17:56;;;;;;;77.60;31.87;;;1.30;99.90;;;;;;5095341;28;20389;-81
2022/12/03 00:20:23;;;;;;;79.07;32.53;;;1.30;99.90;;;;;;5095300;28;20202;-81
2022/12/03 00:22:49;;;;;;;72.07;30.07;;;1.40;99.90;;;;;;5094444;28;20096;-81
2022/12/03 00:25:15;;;;;;;70.33;30.87;;;1.30;99.90;;;;;;5095377;28;20107;-81
2022/12/03 00:27:41;;;;;;;77.90;31.73;;;1.40;99.90;;;;;;5082071;28;20345;-81
2022/12/03 00:30:07;;;;;;;72.10;31.57;;;1.30;99.90;;;;;;5075125;28;20032;-81
2022/12/03 00:32:33;;;;;;;70.03;31.37;;;1.40;99.90;;;;;;5075441;28;20054;-81
2022/12/03 00:34:58;;;;;;;72.77;31.87;;;1.30;99.90;;;;;;5073831;28;20393;-81
2022/12/03 00:37:24;;;;;;;71.67;31.43;;;1.30;99.90;;;;;;5084626;28;20078;-81
2022/12/03 00:39:50;;;;;;;65.23;30.10;;;1.30;99.90;;;;;;5095153;28;20116;-81
2022/12/03 00:42:15;;;;;;;66.47;29.40;;;1.30;99.90;;;;;;5095229;28;20028;-81
2022/12/03 00:44:41;;;;;;;65.90;29.47;;;1.30;99.90;;;;;;5095097;28;20103;-81
2022/12/03 00:47:07;;;;;;;66.13;29.53;;;1.30;99.90;;;;;;5095083;28;20401;-81
2022/12/03 00:49:32;;;;;;;64.30;29.13;;;1.30;99.90;;;;;;5083720;28;20530;-81
2022/12/03 00:51:58;;;;;;;74.00;30.00;;;1.30;99.90;;;;;;5092274;28;20032;-81
2022/12/03 00:54:23;;;;;;;71.73;30.87;;;1.30;99.90;;;;;;5094793;28;20020;-81
2022/12/03 00:56:49;;;;;;;69.53;30.27;;;1.30;99.90;;;;;;5093550;28;20471;-81
2022/12/03 00:59:14;;;;;;;64.20;29.70;;;1.30;99.90;;;;;;5094945;28;20039;-82
2022/12/03 01:01:40;;;;;;;77.07;31.27;;;1.30;99.90;;;;;;5094990;28;20130;-81
2022/12/03 01:04:05;;;;;;;72.20;30.70;;;1.30;99.90;;;;;;5094944;28;20520;-81
2022/12/03 01:06:31;;;;;;;69.57;30.47;;;1.30;99.90;;;;;;5094284;28;20028;-81
2022/12/03 01:08:57;;;;;;;72.10;30.67;;;1.30;99.90;;;;;;5095354;28;20392;-81
2022/12/03 01:11:40;;;;;;;76.53;32.57;;;1.30;99.90;;;;;;5094766;28;20020;-81
2022/12/03 01:14:08;;;;;;;70.87;30.37;;;1.30;99.90;;;;;;5094897;28;20020;-81
2022/12/03 01:16:34;;;;;;;67.47;30.20;;;1.30;99.90;;;;;;5094449;28;20089;-81
2022/12/03 01:19:00;;;;;;;65.67;30.60;;;1.30;99.90;;;;;;5094136;28;20497;-81
2022/12/03 01:21:26;;;;;;;70.47;30.47;;;1.30;99.90;;;;;;5094455;28;20027;-81
2022/12/03 01:23:52;;;;;;;74.87;32.97;;;1.30;99.90;;;;;;5094285;28;20020;-81
2022/12/03 01:26:18;;;;;;;72.83;31.33;;;1.30;99.90;;;;;;5094146;28;20027;-81
2022/12/03 01:28:43;;;;;;;74.07;30.00;;;1.30;99.90;;;;;;5094226;28;20456;-81
2022/12/03 01:33:53;;;;;;;72.83;32.43;;;1.30;99.90;;;;;;5073821;28;20078;-81
2022/12/03 01:36:19;;;;;;;74.40;33.73;;;1.20;99.90;;;;;;5073900;28;20416;-80
2022/12/03 01:38:44;;;;;;;72.63;30.57;;;1.20;99.90;;;;;;5073740;28;20028;-81
2022/12/03 01:41:10;;;;;;;71.63;31.40;;;1.20;99.90;;;;;;5073819;28;20374;-81
2022/12/03 01:43:36;;;;;;;79.70;33.13;;;1.20;99.90;;;;;;5078137;28;20107;-81
2022/12/03 01:46:02;;;;;;;79.87;32.40;;;1.20;99.90;;;;;;5093885;28;20083;-81
2022/12/03 01:48:33;;;;;;;76.87;30.33;;;1.20;99.90;;;;;;5092458;28;20458;-81
2022/12/03 01:50:59;;;;;;;74.63;31.97;;;1.20;99.90;;;;;;5093963;28;20056;-81
2022/12/03 01:53:25;;;;;;;75.37;31.67;;;1.10;99.90;;;;;;5078552;28;20416;-80
2022/12/03 01:55:50;;;;;;;74.57;31.47;;;1.10;99.90;;;;;;5074092;28;20063;-81
2022/12/03 01:58:20;;;;;;;74.67;30.40;;;1.10;99.90;;;;;;5086856;28;20059;-80
2022/12/03 02:00:45;;;;;;;76.73;31.57;;;1.10;99.90;;;;;;5093913;28;20384;-81
2022/12/03 02:03:17;;;;;;;73.20;29.43;;;1.10;99.90;;;;;;5093450;28;20032;-81
2022/12/03 02:05:43;;;;;;;81.13;32.20;;;1.10;99.90;;;;;;5093477;28;20028;-81
2022/12/03 02:08:33;;;;;;;66.97;29.17;;;1.10;99.90;;;;;;5093363;28;20200;-81
2022/12/03 02:11:08;;;;;;;67.33;29.33;;;1.10;99.90;;;;;;5093929;28;20394;-81
2022/12/03 02:13:34;;;;;;;79.82;30.15;;;1.10;99.90;;;;;;5093668;28;20024;-81
2022/12/03 02:16:00;;;;;;;68.50;29.23;;;1.10;99.90;;;;;;5092024;28;20028;-81
2022/12/03 02:18:26;;;;;;;70.87;29.43;;;1.00;99.90;;;;;;5092420;28;20075;-80
2022/12/03 02:21:28;;;;;;;73.57;30.50;;;1.00;99.90;;;;;;5092895;28;20345;-80
2022/12/03 02:24:25;;;;;;;69.50;28.37;;;1.00;99.90;;;;;;5065605;28;20028;-80
2022/12/03 02:26:51;;;;;;;74.40;29.40;;;1.00;99.90;;;;;;5073661;28;20058;-81
2022/12/03 02:29:16;;;;;;;98.77;30.07;;;1.00;99.90;;;;;;5093353;28;20074;-81
2022/12/03 02:31:42;;;;;;;97.60;32.33;;;1.00;99.90;;;;;;5093251;28;20094;-81
2022/12/03 02:34:09;;;;;;;85.33;29.97;;;0.90;99.90;;;;;;5093300;28;20056;-81
2022/12/03 02:36:36;;;;;;;82.93;31.80;;;0.90;99.90;;;;;;5093036;28;20035;-81
2022/12/03 02:39:02;;;;;;;98.90;31.33;;;0.90;99.90;;;;;;5091750;28;20122;-80
2022/12/03 02:44:12;;;;;;;123.77;29.00;;;0.90;99.90;;;;;;5093399;28;20062;-80
2022/12/03 02:46:38;;;;;;;88.83;30.30;;;0.90;99.90;;;;;;5093334;28;20453;-80
2022/12/03 02:49:04;;;;;;;113.00;30.10;;;0.90;99.90;;;;;;5084974;28;20075;-81
2022/12/03 02:51:31;;;;;;;95.70;29.00;;;0.80;99.90;;;;;;5073244;28;20143;-80
2022/12/03 02:53:58;;;;;;;96.03;30.10;;;0.80;99.90;;;;;;5071496;28;20488;-81
2022/12/03 02:56:28;;;;;;;94.87;30.90;;;0.80;99.90;;;;;;5072627;28;20021;-81
2022/12/03 02:58:58;;;;;;;74.90;28.50;;;0.80;99.90;;;;;;5072893;28;20031;-80
2022/12/03 03:01:24;;;;;;;64.43;26.00;;;0.90;99.90;;;;;;5071693;28;20362;-81
2022/12/03 03:03:50;;;;;;;61.10;26.33;;;0.90;99.90;;;;;;5071342;28;20028;-81
2022/12/03 03:06:17;;;;;;;64.97;26.77;;;0.90;99.90;;;;;;5072888;28;20347;-80
2022/12/03 03:08:43;;;;;;;68.33;27.30;;;0.90;99.90;;;;;;5073110;28;20025;-81
2022/12/03 03:11:09;;;;;;;80.43;30.13;;;0.80;99.90;;;;;;5072577;28;20028;-81
2022/12/03 03:13:35;;;;;;;71.43;28.90;;;0.80;99.90;;;;;;5072880;28;20074;-81
2022/12/03 03:16:03;;;;;;;69.27;27.33;;;0.80;99.90;;;;;;5073317;28;20024;-81
2022/12/03 03:18:28;;;;;;;76.23;26.07;;;0.80;99.90;;;;;;5072624;28;20404;-81
2022/12/03 03:20:54;;;;;;;52.57;24.43;;;0.80;99.90;;;;;;5072471;28;20024;-81
2022/12/03 03:23:22;;;;;;;49.83;22.90;;;0.80;99.90;;;;;;5072624;28;20071;-81
2022/12/03 03:26:08;;;;;;;45.77;21.10;;;0.80;99.90;;;;;;5072287;28;20115;-80
2022/12/03 03:28:36;;;;;;;42.00;20.87;;;0.80;99.90;;;;;;5084098;28;20028;-81
2022/12/03 03:31:03;;;;;;;37.20;19.00;;;0.80;99.90;;;;;;5096486;28;20058;-81
2022/12/03 03:33:29;;;;;;;42.67;20.57;;;0.80;99.90;;;;;;5096302;28;20110;-80
2022/12/03 03:35:55;;;;;;;39.70;20.47;;;0.80;99.90;;;;;;5096163;28;20043;-80
2022/12/03 03:38:22;;;;;;;36.20;17.90;;;0.80;99.90;;;;;;5096190;28;20130;-81
2022/12/03 03:40:50;;;;;;;37.53;18.57;;;0.70;99.90;;;;;;5096203;28;20032;-81
2022/12/03 03:43:16;;;;;;;34.20;17.80;;;0.70;99.90;;;;;;5096708;28;20099;-81
2022/12/03 03:45:42;;;;;;;40.57;19.97;;;0.70;99.90;;;;;;5096176;28;20121;-80
2022/12/03 03:48:09;;;;;;;37.73;18.70;;;0.70;99.90;;;;;;5096061;28;20016;-80
2022/12/03 03:50:35;;;;;;;39.80;20.10;;;0.70;99.90;;;;;;5094541;28;20024;-82
2022/12/03 03:53:06;;;;;;;35.33;17.97;;;0.60;99.90;;;;;;5093629;28;20465;-82
2022/12/03 03:55:33;;;;;;;34.17;18.60;;;0.70;99.90;;;;;;5082753;28;20032;-82
2022/12/03 03:57:59;;;;;;;33.50;18.20;;;0.70;99.90;;;;;;5096957;28;20120;-82
2022/12/03 04:00:24;;;;;;;38.50;18.53;;;0.70;99.90;;;;;;5095446;28;20534;-82
2022/12/03 04:02:51;;;;;;;39.40;19.10;;;0.70;99.90;;;;;;5095190;28;20030;-81
2022/12/03 04:05:19;;;;;;;37.90;18.43;;;0.60;99.90;;;;;;5095287;28;20032;-82
2022/12/03 04:07:45;;;;;;;38.33;18.73;;;0.60;99.90;;;;;;5096001;28;20060;-82
2022/12/03 04:12:58;;;;;;;35.03;17.80;;;0.70;99.90;;;;;;5095978;28;20103;-82
2022/12/03 04:15:24;;;;;;;35.47;19.43;;;0.70;99.90;;;;;;5094140;28;20108;-82
2022/12/03 04:18:41;;;;;;;35.53;19.00;;;0.70;99.90;;;;;;5092176;28;20048;-82
2022/12/03 04:20:38;;;;;;;36.90;18.60;;;0.70;99.90;;;;;;5092795;28;20028;-82
2022/12/03 04:23:04;;;;;;;37.60;17.90;;;0.70;99.90;;;;;;5082151;28;20351;-82
2022/12/03 04:30:58;;;;;;;36.13;18.20;;;0.70;99.90;;;;;;5088029;28;20126;-82
2022/12/03 04:36:08;;;;;;;38.73;19.50;;;0.60;99.90;;;;;;5092145;28;20031;-82
2022/12/03 04:38:33;;;;;;;36.83;18.73;;;0.60;99.90;;;;;;5092537;28;20028;-82
2022/12/03 04:41:05;;;;;;;38.70;19.17;;;0.60;99.90;;;;;;5091637;28;20702;-82
2022/12/03 04:43:33;;;;;;;36.60;18.50;;;0.60;99.90;;;;;;5092333;28;20477;-82
2022/12/03 04:45:59;;;;;;;34.93;17.87;;;0.60;99.90;;;;;;5092446;28;20376;-82
2022/12/03 04:48:25;;;;;;;37.77;19.03;;;0.60;99.90;;;;;;5091830;28;20024;-82
2022/12/03 04:50:51;;;;;;;33.57;17.43;;;0.60;99.90;;;;;;5092180;28;20039;-82
2022/12/03 04:53:17;;;;;;;33.60;17.17;;;0.60;99.90;;;;;;5091960;28;20381;-82
2022/12/03 04:55:42;;;;;;;37.33;18.17;;;0.60;99.90;;;;;;5091915;28;20069;-82
2022/12/03 04:58:08;;;;;;;39.60;18.70;;;0.60;99.90;;;;;;5091788;28;20566;-82
2022/12/03 05:00:34;;;;;;;37.30;19.37;;;0.60;99.90;;;;;;5091925;28;20021;-82
2022/12/03 05:02:59;;;;;;;36.43;18.60;;;0.60;99.90;;;;;;5091944;28;20046;-82
2022/12/03 05:05:25;;;;;;;36.90;18.90;;;0.60;99.90;;;;;;5091711;28;20054;-82
2022/12/03 05:07:51;;;;;;;36.50;18.73;;;0.60;99.90;;;;;;5091594;28;20024;-82
2022/12/03 05:10:16;;;;;;;37.63;18.83;;;0.60;99.90;;;;;;5091520;28;20032;-82
2022/12/03 05:12:44;;;;;;;32.43;17.10;;;0.60;99.90;;;;;;5091475;28;20020;-82
2022/12/03 05:15:10;;;;;;;33.77;19.73;;;0.60;99.90;;;;;;5091743;28;20388;-82
2022/12/03 05:17:35;;;;;;;39.33;21.60;;;0.60;99.90;;;;;;5091282;28;20044;-82
2022/12/03 05:22:45;;;;;;;31.90;17.83;;;0.40;99.90;;;;;;5091297;28;20165;-82
2022/12/03 05:25:11;;;;;;;32.37;17.67;;;0.40;99.90;;;;;;5091325;28;20095;-82
2022/12/03 05:27:36;;;;;;;39.07;19.17;;;0.40;99.90;;;;;;5089452;28;20020;-82
2022/12/03 05:30:02;;;;;;;30.23;16.70;;;0.30;99.90;;;;;;5078853;28;20467;-82
2022/12/03 05:32:28;;;;;;;40.63;21.27;;;0.30;99.90;;;;;;5091258;28;20477;-82
2022/12/03 05:34:53;;;;;;;35.60;18.63;;;0.30;99.90;;;;;;5091520;28;20024;-82
2022/12/03 05:37:19;;;;;;;34.77;18.07;;;0.20;99.90;;;;;;5091140;28;20089;-82
2022/12/03 05:39:44;;;;;;;31.77;16.47;;;0.20;99.90;;;;;;5089688;28;20027;-82
2022/12/03 05:44:54;;;;;;;35.27;17.40;;;0.20;99.90;;;;;;5091145;28;20553;-82
2022/12/03 05:47:19;;;;;;;37.17;18.10;;;0.20;99.90;;;;;;5089580;28;20048;-82
2022/12/03 05:49:45;;;;;;;33.37;17.13;;;0.20;99.90;;;;;;5090557;28;20027;-82
2022/12/03 05:52:11;;;;;;;35.10;17.03;;;0.20;99.90;;;;;;5090783;28;20028;-82
2022/12/03 05:54:36;;;;;;;35.03;18.20;;;0.20;99.90;;;;;;5090860;28;20074;-82
2022/12/03 05:57:02;;;;;;;36.00;18.97;;;0.20;99.90;;;;;;5090867;28;20022;-82
2022/12/03 05:59:27;;;;;;;34.67;17.47;;;0.20;99.90;;;;;;5091315;28;20031;-80
2022/12/03 06:01:53;;;;;;;32.80;16.27;;;0.20;99.90;;;;;;5093817;28;20020;-80
2022/12/03 06:04:19;;;;;;;54.13;27.90;;;0.20;99.90;;;;;;5083533;28;20035;-80
2022/12/03 06:06:44;;;;;;;37.07;17.70;;;0.20;99.90;;;;;;5073744;28;20035;-80
2022/12/03 06:09:10;;;;;;;32.57;17.50;;;0.20;99.90;;;;;;5074016;28;20100;-80
2022/12/03 06:11:36;;;;;;;33.37;17.97;;;0.20;99.90;;;;;;5074998;28;20025;-80
2022/12/03 06:14:02;;;;;;;32.70;17.17;;;0.20;99.90;;;;;;5093550;28;20407;-80
2022/12/03 06:16:27;;;;;;;35.80;16.87;;;0.20;99.90;;;;;;5093792;28;20016;-80
2022/12/03 06:18:53;;;;;;;36.43;21.90;;;0.20;99.90;;;;;;5093336;28;20048;-80
2022/12/03 06:21:18;;;;;;;35.30;16.33;;;0.30;99.90;;;;;;5092194;28;20063;-80
2022/12/03 06:24:00;;;;;;;36.17;18.50;;;0.30;99.90;;;;;;5076523;28;20048;-80
2022/12/03 06:26:25;;;;;;;38.13;18.80;;;0.30;99.90;;;;;;5073195;28;20017;-80
2022/12/03 06:28:51;;;;;;;43.83;21.60;;;0.30;99.90;;;;;;5073943;28;20103;-80
2022/12/03 06:31:17;;;;;;;69.37;41.33;;;0.30;99.90;;;;;;5073605;28;20033;-80
2022/12/03 06:33:42;;;;;;;65.83;37.63;;;0.30;99.90;;;;;;5073194;28;20146;-80
2022/12/03 06:36:08;;;;;;;53.47;29.90;;;0.30;99.90;;;;;;5075189;28;20154;-80
2022/12/03 06:38:33;;;;;;;38.80;18.90;;;0.30;99.90;;;;;;5093474;28;20047;-86
2022/12/03 06:40:59;;;;;;;38.27;18.67;;;0.30;99.90;;;;;;5092639;28;20043;-80
2022/12/03 06:43:24;;;;;;;37.93;17.73;;;0.30;99.90;;;;;;5087502;28;20528;-81
2022/12/03 06:45:50;;;;;;;36.07;17.10;;;0.30;99.90;;;;;;5073143;28;20028;-80
2022/12/03 06:48:15;;;;;;;46.13;22.27;;;0.30;99.90;;;;;;5072992;28;20024;-80
2022/12/03 06:50:41;;;;;;;56.10;28.77;;;0.30;99.90;;;;;;5073375;28;20103;-80
2022/12/03 06:53:07;;;;;;;53.63;25.80;;;0.30;99.90;;;;;;5088943;28;20067;-80
2022/12/03 06:55:32;;;;;;;48.53;24.13;;;0.30;99.90;;;;;;5093329;28;20035;-80
2022/12/03 06:57:58;;;;;;;39.40;18.60;;;0.30;99.90;;;;;;5092511;28;20028;-80
2022/12/03 07:00:24;;;;;;;46.30;20.27;;;0.30;99.90;;;;;;5091309;28;20028;-82
2022/12/03 07:02:49;;;;;;;35.30;18.13;;;0.30;99.90;;;;;;5089952;28;20051;-82
2022/12/03 07:05:15;;;;;;;40.37;20.00;;;0.30;99.90;;;;;;5093768;28;20448;-82
2022/12/03 07:07:41;;;;;;;43.43;19.37;;;0.30;99.90;;;;;;5094348;28;20421;-82
2022/12/03 07:10:07;;;;;;;39.03;19.37;;;0.40;99.90;;;;;;5093902;28;20089;-82
2022/12/03 07:12:32;;;;;;;39.70;18.57;;;0.40;99.90;;;;;;5074654;28;20056;-82
2022/12/03 07:14:58;;;;;;;40.03;18.80;;;0.40;99.90;;;;;;5077326;28;20048;-82
2022/12/03 07:17:24;;;;;;;43.47;18.90;;;0.40;99.90;;;;;;5078304;28;20486;-82
2022/12/03 07:19:49;;;;;;;39.77;19.43;;;0.40;99.90;;;;;;5080571;28;20042;-83
2022/12/03 07:22:16;;;;;;;36.77;18.43;;;0.40;99.90;;;;;;5073176;28;20361;-83
2022/12/03 07:24:41;;;;;;;38.73;18.63;;;0.40;99.90;;;;;;5075906;28;20021;-83
2022/12/03 07:27:07;;;;;;;36.13;17.57;;;0.40;99.90;;;;;;5109395;28;20020;-79
2022/12/03 07:29:32;;;;;;;41.50;18.80;;;0.40;99.90;;;;;;5093177;28;20040;-80
2022/12/03 07:31:58;;;;;;;39.17;19.13;;;0.40;99.90;;;;;;5076211;28;20036;-80
2022/12/03 07:34:24;;;;;;;37.90;17.90;;;0.40;99.90;;;;;;5089212;28;20499;-80
2022/12/03 07:36:49;;;;;;;37.37;18.93;;;0.40;99.90;;;;;;5096768;28;20082;-80
2022/12/03 07:39:15;;;;;;;35.80;18.33;;;0.40;99.90;;;;;;5096321;28;20081;-80
2022/12/03 07:41:40;;;;;;;37.90;18.30;;;0.40;99.90;;;;;;5096695;28;20073;-80
2022/12/03 07:44:06;;;;;;;38.30;18.70;;;0.50;99.90;;;;;;5096953;28;20027;-80
2022/12/03 07:46:31;;;;;;;37.63;17.57;;;0.50;99.90;;;;;;5100322;28;20034;-80
2022/12/03 07:48:57;;;;;;;34.63;17.30;;;0.50;99.90;;;;;;5115777;28;20769;-83
2022/12/03 07:51:22;;;;;;;37.70;17.87;;;0.50;99.90;;;;;;5115184;28;20032;-79
2022/12/03 07:53:48;;;;;;;38.60;18.00;;;0.60;99.90;;;;;;5096599;28;20445;-80
2022/12/03 07:56:13;;;;;;;37.40;17.53;;;0.60;99.90;;;;;;5096340;28;20028;-80
2022/12/03 07:58:39;;;;;;;36.33;17.10;;;0.60;99.90;;;;;;5101941;28;20044;-80
2022/12/03 08:01:05;;;;;;;45.60;19.83;;;0.60;99.90;;;;;;5115320;28;20027;-80
2022/12/03 08:03:30;;;;;;;40.03;18.33;;;0.60;99.90;;;;;;5097518;28;20027;-80
2022/12/03 08:05:56;;;;;;;37.23;17.03;;;0.60;99.90;;;;;;5096002;28;20453;-80
2022/12/03 08:08:21;;;;;;;39.77;17.93;;;0.70;99.90;;;;;;5094670;28;20028;-80
2022/12/03 08:10:47;;;;;;;37.47;16.97;;;0.70;99.90;;;;;;5096020;28;20353;-80
2022/12/03 08:13:15;;;;;;;80.60;35.37;;;0.70;99.90;;;;;;5096463;28;20032;-80
2022/12/03 08:15:41;;;;;;;43.20;19.90;;;0.60;99.90;;;;;;5091152;28;20028;-80
2022/12/03 08:18:20;;;;;;;42.90;20.33;;;0.60;99.90;;;;;;5096848;28;20048;-80
2022/12/03 08:20:48;;;;;;;39.73;19.13;;;0.60;99.90;;;;;;5091072;28;20092;-88
2022/12/03 08:23:21;;;;;;;37.77;19.30;;;0.60;99.90;;;;;;5087952;28;20116;-87
2022/12/03 08:25:48;;;;;;;38.93;18.30;;;0.70;99.90;;;;;;5086170;28;20473;-87
2022/12/03 08:28:20;;;;;;;36.00;17.50;;;0.70;99.90;;;;;;5088221;28;20440;-88
2022/12/03 08:30:57;;;;;;;32.93;16.63;;;0.70;99.90;;;;;;5089268;28;20097;-87
2022/12/03 08:33:29;;;;;;;35.80;17.73;;;0.70;99.90;;;;;;5089639;28;20040;-87
2022/12/03 08:35:54;;;;;;;39.83;18.13;;;0.70;99.90;;;;;;5088852;28;20028;-87
2022/12/03 08:38:22;;;;;;;32.53;17.97;;;0.70;99.90;;;;;;5091665;28;20065;-87
2022/12/03 08:40:50;;;;;;;32.90;16.83;;;0.70;99.90;;;;;;5086643;28;20028;-87
2022/12/03 08:43:24;;;;;;;39.33;18.30;;;0.70;99.90;;;;;;5089220;28;20085;-87
2022/12/03 08:45:52;;;;;;;36.95;18.08;;;0.70;99.90;;;;;;5090917;28;20023;-87
2022/12/03 08:48:17;;;;;;;36.13;16.83;;;0.70;99.90;;;;;;5090235;28;20030;-87
2022/12/03 08:50:43;;;;;;;36.17;16.87;;;0.70;99.90;;;;;;5091855;28;20032;-87
2022/12/03 08:53:26;;;;;;;33.40;16.83;;;0.70;99.90;;;;;;5090775;28;20383;-88
2022/12/03 08:55:54;;;;;;;33.40;18.00;;;0.70;99.90;;;;;;5089161;28;20115;-88
2022/12/03 08:58:24;;;;;;;35.23;17.53;;;0.80;99.90;;;;;;5083062;28;20067;-87
2022/12/03 09:01:15;;;;;;;33.47;16.73;;;0.80;99.90;;;;;;5087862;28;20028;-87
2022/12/03 09:03:51;;;;;;;36.17;16.73;;;0.80;99.90;;;;;;5074611;28;20036;-87
2022/12/03 09:06:17;;;;;;;27.50;15.50;;;0.80;99.90;;;;;;5088159;28;20020;-87
2022/12/03 09:08:43;;;;;;;31.17;16.37;;;0.90;99.90;;;;;;5086763;28;20032;-87
2022/12/03 09:11:08;;;;;;;33.87;16.73;;;0.90;99.90;;;;;;5085930;28;20043;-87
2022/12/03 09:13:34;;;;;;;32.33;16.53;;;0.90;99.90;;;;;;5086830;28;20036;-87
2022/12/03 09:15:59;;;;;;;30.00;15.90;;;0.90;99.90;;;;;;5086128;28;20063;-87
2022/12/03 09:18:27;;;;;;;30.00;17.00;;;0.90;99.90;;;;;;5085168;28;20105;-87
2022/12/03 09:20:53;;;;;;;30.87;16.37;;;0.90;99.90;;;;;;5084923;28;20024;-87
2022/12/03 09:23:18;;;;;;;27.77;14.80;;;0.90;99.90;;;;;;5086424;28;20093;-87
2022/12/03 09:25:44;;;;;;;33.07;16.53;;;0.90;99.90;;;;;;5092672;28;20040;-88
2022/12/03 09:28:09;;;;;;;29.70;16.27;;;0.90;99.90;;;;;;5087314;28;20380;-88
2022/12/03 09:30:35;;;;;;;27.07;14.87;;;0.90;99.90;;;;;;5089324;28;20044;-83
2022/12/03 09:33:00;;;;;;;32.67;17.90;;;0.90;99.90;;;;;;5088955;28;20063;-83
2022/12/03 09:35:27;;;;;;;51.13;24.70;;;0.90;99.90;;;;;;5088607;28;20040;-83
2022/12/03 09:37:52;;;;;;;40.10;19.40;;;0.90;99.90;;;;;;5085304;28;20020;-83
2022/12/03 09:40:19;;;;;;;32.23;18.40;;;0.90;99.90;;;;;;5086409;28;20039;-83
2022/12/03 09:42:45;;;;;;;38.73;20.80;;;0.90;99.90;;;;;;5087758;28;20052;-83
2022/12/03 09:45:13;;;;;;;37.47;20.67;;;1.00;99.90;;;;;;5086358;28;20024;-83
2022/12/03 09:47:45;;;;;;;37.83;19.73;;;1.00;99.90;;;;;;5085404;28;20028;-83
2022/12/03 09:50:13;;;;;;;46.37;24.37;;;1.00;99.90;;;;;;5086954;28;20412;-83
2022/12/03 09:52:38;;;;;;;40.17;21.73;;;1.00;99.90;;;;;;5085991;28;20024;-83
2022/12/03 09:55:12;;;;;;;47.70;26.27;;;1.00;99.90;;;;;;5087935;28;20039;-83
2022/12/03 09:57:38;;;;;;;41.47;23.00;;;1.00;99.90;;;;;;5085815;28;20027;-83
2022/12/03 10:00:17;;;;;;;47.17;25.73;;;1.00;99.90;;;;;;5086982;28;20431;-83
2022/12/03 10:02:44;;;;;;;42.67;22.50;;;0.90;99.90;;;;;;5085924;28;20028;-83
2022/12/03 10:05:10;;;;;;;40.60;22.43;;;0.90;99.90;;;;;;5086014;28;20128;-83
2022/12/03 10:07:36;;;;;;;36.57;19.10;;;0.90;99.90;;;;;;5085420;28;20047;-83
2022/12/03 10:10:02;;;;;;;52.17;30.33;;;1.00;99.90;;;;;;5085470;28;20024;-83
2022/12/03 10:12:28;;;;;;;35.13;19.40;;;1.00;99.90;;;;;;5085725;28;20038;-89
2022/12/03 10:14:54;;;;;;;34.53;17.87;;;1.00;99.90;;;;;;5087040;28;20032;-83
2022/12/03 10:17:19;;;;;;;36.57;19.20;;;1.00;99.90;;;;;;5087567;28;20811;-84
2022/12/03 10:19:45;;;;;;;40.77;22.80;;;1.00;99.90;;;;;;5085546;28;20092;-86
2022/12/03 10:22:11;;;;;;;47.00;25.00;;;1.00;99.90;;;;;;5090939;28;20027;-88
2022/12/03 10:24:37;;;;;;;32.67;18.67;;;1.00;99.90;;;;;;5089873;28;20035;-83
2022/12/03 10:27:22;;;;;;;42.27;18.13;;;1.00;99.90;;;;;;5087889;28;20028;-83
2022/12/03 10:29:58;;;;;;;19.67;11.75;;;1.00;99.90;;;;;;5084933;28;20552;-83
2022/12/03 10:32:40;;;;;;;40.47;17.60;;;1.10;99.90;;;;;;5087387;28;20111;-83
2022/12/03 10:35:09;;;;;;;33.40;15.60;;;1.10;99.90;;;;;;5082632;28;20433;-82
2022/12/03 10:37:35;;;;;;;42.00;20.77;;;1.10;99.90;;;;;;5085209;28;20072;-82
2022/12/03 10:40:07;;;;;;;32.47;17.37;;;1.10;99.90;;;;;;5087024;28;20080;-82
2022/12/03 10:42:38;;;;;;;52.03;24.57;;;1.10;99.90;;;;;;5087187;28;20028;-81
2022/12/03 10:45:18;;;;;;;41.53;21.17;;;1.20;99.90;;;;;;5086919;28;20492;-80
2022/12/03 10:48:03;;;;;;;48.77;22.87;;;1.20;99.90;;;;;;5090246;28;20031;-86
2022/12/03 10:50:29;;;;;;;32.97;17.57;;;1.20;99.90;;;;;;5089327;28;20069;-83
2022/12/03 10:52:54;;;;;;;51.57;24.70;;;1.20;99.90;;;;;;5090048;28;20107;-83
2022/12/03 10:55:20;;;;;;;34.40;18.17;;;1.20;99.90;;;;;;5088785;28;20028;-84
2022/12/03 10:57:46;;;;;;;43.03;21.27;;;1.20;99.90;;;;;;5089562;28;20031;-83
2022/12/03 11:00:19;;;;;;;36.87;18.30;;;1.10;99.90;;;;;;5089622;28;20366;-83
2022/12/03 11:02:45;;;;;;;56.67;26.07;;;1.10;99.90;;;;;;5089877;28;20065;-83
2022/12/03 11:05:17;;;;;;;33.03;18.00;;;1.10;99.90;;;;;;5088638;28;20017;-83
2022/12/03 11:07:43;;;;;;;34.70;17.53;;;1.10;99.90;;;;;;5091394;28;20020;-83
2022/12/03 11:10:17;;;;;;;35.70;18.30;;;1.20;99.90;;;;;;5094888;28;20023;-83
2022/12/03 11:13:22;;;;;;;29.42;14.93;;;1.20;99.90;;;;;;5095546;28;20028;-83
2022/12/03 11:15:47;;;;;;;32.10;17.30;;;1.20;99.90;;;;;;5092718;28;20028;-83
2022/12/03 11:18:35;;;;;;;40.73;19.10;;;1.10;99.90;;;;;;5097994;28;20048;-82
2022/12/03 11:21:01;;;;;;;38.23;17.93;;;1.20;99.90;;;;;;5091671;28;20028;-84
2022/12/03 11:23:44;;;;;;;39.97;18.67;;;1.20;99.90;;;;;;5092893;28;20022;-82
2022/12/03 11:26:16;;;;;;;42.30;18.63;;;1.10;99.90;;;;;;5090162;28;20369;-82
2022/12/03 11:28:44;;;;;;;54.03;22.07;;;1.10;99.90;;;;;;5087325;28;20024;-83
2022/12/03 11:31:30;;;;;;;43.97;20.13;;;1.10;99.90;;;;;;5088917;28;20026;-83
2022/12/03 11:34:28;;;;;;;48.85;25.33;;;1.20;99.90;;;;;;5091124;28;21259;-83
2022/12/03 11:37:11;;;;;;;36.00;19.03;;;1.20;99.90;;;;;;5061020;28;20478;-82
2022/12/03 11:40:01;;;;;;;40.27;19.90;;;1.20;99.90;;;;;;5087491;28;20020;-82
2022/12/03 11:42:28;;;;;;;37.67;18.90;;;1.20;99.90;;;;;;5084731;28;20036;-83
2022/12/03 11:45:36;;;;;;;39.30;20.57;;;1.20;99.90;;;;;;5084917;28;20027;-82
2022/12/03 11:48:13;;;;;;;61.53;27.00;;;1.10;99.90;;;;;;5082146;28;20117;-83
2022/12/03 11:50:43;;;;;;;46.20;21.90;;;1.10;99.90;;;;;;5083658;28;20447;-83
2022/12/03 11:53:19;;;;;;;51.80;23.90;;;1.10;99.90;;;;;;5086018;28;20039;-83
2022/12/03 11:55:50;;;;;;;56.20;25.00;;;1.10;99.90;;;;;;5085051;28;20077;-83
2022/12/03 11:58:27;;;;;;;58.87;28.33;;;1.10;99.90;;;;;;5084198;28;20131;-83
2022/12/03 12:01:00;;;;;;;44.13;22.83;;;1.20;99.90;;;;;;5083799;28;20711;-82
2022/12/03 12:03:43;;;;;;;87.20;40.27;;;1.10;99.90;;;;;;5085525;28;20028;-82
2022/12/03 12:06:17;;;;;;;46.27;22.63;;;1.10;99.90;;;;;;5085636;28;20130;-83
2022/12/03 12:08:57;;;;;;;46.90;23.30;;;1.00;99.90;;;;;;5084542;28;20032;-82
2022/12/03 12:11:35;;;;;;;44.27;22.70;;;1.10;99.90;;;;;;5085234;28;20057;-83
2022/12/03 12:14:00;;;;;;;60.67;28.67;;;1.00;99.90;;;;;;5084797;28;20024;-83
2022/12/03 12:16:41;;;;;;;52.67;25.47;;;1.00;99.90;;;;;;5084368;28;20028;-83
2022/12/03 12:19:34;;;;;;;44.07;21.63;;;1.00;99.90;;;;;;5085507;28;20039;-83
2022/12/03 12:22:18;;;;;;;64.30;26.77;;;1.00;99.90;;;;;;5085078;28;20056;-83
2022/12/03 12:24:47;;;;;;;48.30;23.80;;;1.00;99.90;;;;;;5084278;28;20024;-83
2022/12/03 12:27:19;;;;;;;52.50;24.27;;;1.00;99.90;;;;;;5082981;28;20027;-83
2022/12/03 12:29:53;;;;;;;54.50;26.27;;;1.00;99.90;;;;;;5084995;28;20120;-83
2022/12/03 12:32:28;;;;;;;47.75;22.02;;;1.00;99.90;;;;;;5084767;28;20073;-83
2022/12/03 12:35:13;;;;;;;;;;;1.00;99.90;;;;;;5085324;28;20024;-83
2022/12/03 12:37:53;;;;;;;54.57;26.10;;;1.10;99.90;;;;;;5084256;28;20002;-81
2022/12/03 12:40:25;;;;;;;56.17;27.20;;;1.10;99.90;;;;;;5085109;28;20841;-83
2022/12/03 12:42:54;;;;;;;59.40;26.80;;;1.10;99.90;;;;;;5082188;28;20112;-83
2022/12/03 12:45:28;;;;;;;45.70;23.67;;;1.10;99.90;;;;;;5084692;28;21322;-83
2022/12/03 12:48:08;;;;;;;61.93;30.17;;;1.10;99.90;;;;;;5082939;28;20064;-83
2022/12/03 12:50:35;;;;;;;48.53;25.17;;;1.10;99.90;;;;;;5084963;28;20081;-83
2022/12/03 12:53:11;;;;;;;39.83;22.40;;;1.10;99.90;;;;;;5084374;28;20046;-83
2022/12/03 12:55:40;;;;;;;49.10;25.50;;;1.10;99.90;;;;;;5082585;28;20036;-83
2022/12/03 12:58:17;;;;;;;49.33;24.73;;;1.10;99.90;;;;;;5083966;28;20059;-83
2022/12/03 13:00:47;;;;;;;49.50;25.40;;;1.10;99.90;;;;;;5081759;28;20020;-83
2022/12/03 13:03:15;;;;;;;52.00;26.10;;;1.10;99.90;;;;;;5083204;28;20507;-83
2022/12/03 13:05:44;;;;;;;45.57;22.80;;;1.10;99.90;;;;;;5083529;28;20480;-80
2022/12/03 13:08:28;;;;;;;46.73;21.37;;;1.00;99.90;;;;;;5081576;28;20473;-81